createdAt,value
2023-12-20T00:00:40.928Z,9.309107
2023-12-20T00:01:39.858Z,9.309175
2023-12-20T00:02:39.782Z,9.309119
2023-12-20T00:03:42.470Z,9.309111
2023-12-20T00:04:41.011Z,9.309102
2023-12-20T00:05:39.833Z,9.309072
2023-12-20T00:06:40.097Z,9.309003
2023-12-20T00:07:39.745Z,9.309059
2023-12-20T00:08:39.654Z,9.309054
2023-12-20T00:09:39.729Z,9.309160
2023-12-20T00:10:39.633Z,9.309107
2023-12-20T00:11:39.657Z,9.309096
2023-12-20T00:12:39.704Z,9.309078
2023-12-20T00:13:39.724Z,9.309104
2023-12-20T00:14:39.779Z,9.309166
2023-12-20T00:15:39.649Z,9.309106
2023-12-20T00:16:39.848Z,9.309015
2023-12-20T00:17:39.995Z,9.309118
2023-12-20T00:18:39.664Z,9.309068
2023-12-20T00:19:39.712Z,9.309025
2023-12-20T00:20:39.741Z,9.309139
2023-12-20T00:21:39.619Z,9.309119
2023-12-20T00:22:39.660Z,9.309162
2023-12-20T00:23:39.569Z,9.309213
2023-12-20T00:24:39.565Z,9.309163
2023-12-20T00:25:39.591Z,9.309060
2023-12-20T00:26:39.411Z,9.309104
2023-12-20T00:27:39.557Z,9.309187
2023-12-20T00:28:39.554Z,9.309245
2023-12-20T00:29:39.345Z,9.309172
2023-12-20T00:30:39.526Z,9.309093
2023-12-20T00:31:39.426Z,9.309048
2023-12-20T00:32:39.620Z,9.309179
2023-12-20T00:33:40.367Z,9.309006
2023-12-20T00:34:39.406Z,9.308918
2023-12-20T00:35:39.316Z,9.308902
2023-12-20T00:36:39.434Z,9.308835
2023-12-20T00:37:40.322Z,9.309012
2023-12-20T00:38:39.314Z,9.309116
2023-12-20T00:39:39.759Z,9.308954
2023-12-20T00:40:39.445Z,9.308937
2023-12-20T00:41:39.658Z,9.309013
2023-12-20T00:42:39.536Z,9.309033
2023-12-20T00:43:39.545Z,9.309014
2023-12-20T00:44:39.388Z,9.309040
2023-12-20T00:45:39.519Z,9.309068
2023-12-20T00:46:39.803Z,9.309042
2023-12-20T00:47:39.416Z,9.309031
2023-12-20T00:48:39.361Z,9.309028
2023-12-20T00:49:39.348Z,9.309047
2023-12-20T00:50:39.349Z,9.309002
2023-12-20T00:51:39.398Z,9.309013
2023-12-20T00:52:39.368Z,9.308993
2023-12-20T00:53:39.316Z,9.308981
2023-12-20T00:54:39.460Z,9.308999
2023-12-20T00:55:39.433Z,9.309072
2023-12-20T00:56:39.404Z,9.309044
2023-12-20T00:57:39.596Z,9.309022
2023-12-20T00:58:39.323Z,9.309000
2023-12-20T00:59:39.353Z,9.309084
2023-12-20T01:00:41.533Z,9.309046
2023-12-20T01:01:39.478Z,9.309044
2023-12-20T01:02:39.351Z,9.309013
2023-12-20T01:03:39.492Z,9.309011
2023-12-20T01:04:40.217Z,9.309011
2023-12-20T01:05:39.426Z,9.309004
2023-12-20T01:06:39.395Z,9.308970
2023-12-20T01:07:39.242Z,9.309014
2023-12-20T01:08:39.575Z,9.309014
2023-12-20T01:09:39.259Z,9.309047
2023-12-20T01:10:39.265Z,9.309098
2023-12-20T01:11:39.270Z,9.309117
2023-12-20T01:12:39.283Z,9.309003
2023-12-20T01:13:39.086Z,9.308916
2023-12-20T01:14:39.112Z,9.308996
2023-12-20T01:15:40.144Z,9.308971
2023-12-20T01:16:39.069Z,9.308969
2023-12-20T01:17:39.129Z,9.309014
2023-12-20T01:18:39.235Z,9.309031
2023-12-20T01:19:40.255Z,9.309048
2023-12-20T01:20:39.113Z,9.308967
2023-12-20T01:21:39.169Z,9.309081
2023-12-20T01:22:39.096Z,9.309040
2023-12-20T01:23:40.129Z,9.309010
2023-12-20T01:24:39.340Z,9.308963
2023-12-20T01:25:39.241Z,9.308990
2023-12-20T01:26:39.079Z,9.308921
2023-12-20T01:27:39.259Z,9.308679
2023-12-20T01:28:39.108Z,9.308576
2023-12-20T01:29:39.135Z,9.308766
2023-12-20T01:30:39.255Z,9.308844
2023-12-20T01:31:39.246Z,9.308866
2023-12-20T01:32:39.463Z,9.308791
2023-12-20T01:33:39.151Z,9.308773
2023-12-20T01:34:39.060Z,9.308896
2023-12-20T01:35:39.105Z,9.308928
2023-12-20T01:36:39.082Z,9.308884
2023-12-20T01:37:39.097Z,9.308849
2023-12-20T01:38:39.164Z,9.308773
2023-12-20T01:39:39.036Z,9.308661
2023-12-20T01:40:39.070Z,9.309004
2023-12-20T01:41:39.018Z,9.309033
2023-12-20T01:42:39.147Z,9.308988
2023-12-20T01:43:44.778Z,9.308970
2023-12-20T01:44:41.271Z,9.308935
2023-12-20T01:45:39.099Z,9.308869
2023-12-20T01:46:40.086Z,9.308940
2023-12-20T01:47:39.016Z,9.308825
2023-12-20T01:48:38.997Z,9.308957
2023-12-20T01:49:39.182Z,9.308979
2023-12-20T01:50:39.146Z,9.308893
2023-12-20T01:51:39.067Z,9.308910
2023-12-20T01:52:39.025Z,9.309004
2023-12-20T01:53:38.917Z,9.308816
2023-12-20T01:54:38.966Z,9.308855
2023-12-20T01:55:39.168Z,9.308853
2023-12-20T01:56:38.897Z,9.308940
2023-12-20T01:57:39.033Z,9.308933
2023-12-20T01:58:38.810Z,9.308867
2023-12-20T01:59:38.719Z,9.308894
2023-12-20T02:00:39.001Z,9.308995
2023-12-20T02:01:38.806Z,9.308894
2023-12-20T02:02:38.876Z,9.308811
2023-12-20T02:03:39.397Z,9.308957
2023-12-20T02:04:38.830Z,9.308899
2023-12-20T02:05:38.717Z,9.308796
2023-12-20T02:06:38.763Z,9.308855
2023-12-20T02:07:38.770Z,9.308801
2023-12-20T02:08:38.710Z,9.308923
2023-12-20T02:09:38.675Z,9.308873
2023-12-20T02:10:38.723Z,9.308888
2023-12-20T02:11:38.950Z,9.308986
2023-12-20T02:12:38.862Z,9.308901
2023-12-20T02:13:39.529Z,9.308915
2023-12-20T02:14:38.744Z,9.308879
2023-12-20T02:15:38.858Z,9.308988
2023-12-20T02:16:38.893Z,9.308862
2023-12-20T02:17:38.762Z,9.308888
2023-12-20T02:18:39.007Z,9.308903
2023-12-20T02:19:38.846Z,9.308969
2023-12-20T02:20:38.709Z,9.308949
2023-12-20T02:21:38.791Z,9.309026
2023-12-20T02:22:38.782Z,9.308820
2023-12-20T02:23:38.816Z,9.308868
2023-12-20T02:24:39.081Z,9.308920
2023-12-20T02:25:38.659Z,9.308846
2023-12-20T02:26:38.644Z,9.309047
2023-12-20T02:27:38.863Z,9.309193
2023-12-20T02:28:38.700Z,9.309093
2023-12-20T02:29:38.824Z,9.309048
2023-12-20T02:30:38.852Z,9.309241
2023-12-20T02:31:38.723Z,9.308862
2023-12-20T02:32:38.879Z,9.308759
2023-12-20T02:33:38.705Z,9.309009
2023-12-20T02:34:38.763Z,9.309000
2023-12-20T02:35:38.962Z,9.308978
2023-12-20T02:36:38.709Z,9.308908
2023-12-20T02:37:38.608Z,9.309052
2023-12-20T02:38:38.742Z,9.309185
2023-12-20T02:39:39.298Z,9.309138
2023-12-20T02:40:38.520Z,9.309143
2023-12-20T02:41:38.661Z,9.309171
2023-12-20T02:42:38.568Z,9.309212
2023-12-20T02:43:38.532Z,9.309158
2023-12-20T02:44:38.588Z,9.309113
2023-12-20T02:45:38.587Z,9.309116
2023-12-20T02:46:39.374Z,9.309051
2023-12-20T02:47:38.731Z,9.309101
2023-12-20T02:48:38.597Z,9.309114
2023-12-20T02:49:38.524Z,9.309128
2023-12-20T02:50:38.522Z,9.309082
2023-12-20T02:51:38.445Z,9.309111
2023-12-20T02:52:38.500Z,9.309089
2023-12-20T02:53:38.403Z,9.309069
2023-12-20T02:54:38.436Z,9.309107
2023-12-20T02:55:38.396Z,9.308990
2023-12-20T04:12:22.299Z,9.309070
2023-12-20T04:13:22.168Z,9.309237
2023-12-20T04:14:22.095Z,9.309111
2023-12-20T04:15:22.234Z,9.309047
2023-12-20T04:16:22.168Z,9.309140
2023-12-20T04:17:22.154Z,9.309136
2023-12-20T04:18:22.134Z,9.309126
2023-12-20T04:19:22.202Z,9.309175
2023-12-20T04:20:22.406Z,9.309149
2023-12-20T04:21:22.228Z,9.309078
2023-12-20T04:22:22.407Z,9.309169
2023-12-20T04:23:22.983Z,9.309140
2023-12-20T04:24:22.154Z,9.309086
2023-12-20T04:25:22.260Z,9.309091
2023-12-20T04:26:22.352Z,9.309027
2023-12-20T04:27:22.197Z,9.308945
2023-12-20T04:28:22.203Z,9.308906
2023-12-20T04:29:22.582Z,9.308941
2023-12-20T04:30:22.998Z,9.309003
2023-12-20T04:31:22.253Z,9.309055
2023-12-20T04:32:22.108Z,9.309025
2023-12-20T04:33:22.075Z,9.309011
2023-12-20T04:34:22.499Z,9.308850
2023-12-20T04:35:22.164Z,9.308883
2023-12-20T04:36:22.066Z,9.309031
2023-12-20T04:37:22.332Z,9.308971
2023-12-20T04:38:22.322Z,9.308828
2023-12-20T04:39:22.138Z,9.308940
2023-12-20T04:40:22.003Z,9.309023
2023-12-20T04:41:22.327Z,9.309227
2023-12-20T04:42:22.026Z,9.309091
2023-12-20T04:43:22.139Z,9.308967
2023-12-20T04:44:22.188Z,9.309061
2023-12-20T04:45:22.981Z,9.309081
2023-12-20T04:46:22.239Z,9.309253
2023-12-20T04:47:22.250Z,9.309136
2023-12-20T04:48:22.115Z,9.309181
2023-12-20T04:49:22.098Z,9.309077
2023-12-20T04:50:22.153Z,9.309061
2023-12-20T04:51:21.970Z,9.309114
2023-12-20T04:52:22.866Z,9.309140
2023-12-20T04:53:22.532Z,9.309139
2023-12-20T04:54:22.524Z,9.309186
2023-12-20T04:55:21.884Z,9.309156
2023-12-20T04:56:21.866Z,9.309143
2023-12-20T04:57:21.939Z,9.309377
2023-12-20T04:58:21.848Z,9.309290
2023-12-20T04:59:21.782Z,9.309273
2023-12-20T05:00:21.909Z,9.309258
2023-12-20T05:01:22.002Z,9.309229
2023-12-20T05:02:21.796Z,9.309178
2023-12-20T05:03:21.796Z,9.309097
2023-12-20T05:04:21.866Z,9.309063
2023-12-20T05:05:22.569Z,9.309196
2023-12-20T05:06:21.813Z,9.309116
2023-12-20T05:07:22.053Z,9.309205
2023-12-20T05:08:22.583Z,9.309170
2023-12-20T05:09:21.910Z,9.309209
2023-12-20T05:10:22.260Z,9.309197
2023-12-20T05:11:21.948Z,9.309151
2023-12-20T05:12:21.874Z,9.309135
2023-12-20T05:13:22.515Z,9.309141
2023-12-20T05:14:21.813Z,9.309082
2023-12-20T05:15:22.531Z,9.309098
2023-12-20T05:16:21.909Z,9.309190
2023-12-20T05:17:21.828Z,9.309118
2023-12-20T05:18:21.800Z,9.309150
2023-12-20T05:19:21.796Z,9.309147
2023-12-20T05:20:22.635Z,9.309136
2023-12-20T05:21:23.061Z,9.309111
2023-12-20T05:22:22.861Z,9.309151
2023-12-20T05:23:21.813Z,9.309107
2023-12-20T05:24:21.759Z,9.309124
2023-12-20T05:25:21.822Z,9.309101
2023-12-20T05:26:21.771Z,9.309118
2023-12-20T05:27:21.782Z,9.309133
2023-12-20T05:28:21.746Z,9.309160
2023-12-20T05:29:21.843Z,9.309173
2023-12-20T05:30:21.827Z,9.309149
2023-12-20T05:31:21.891Z,9.309134
2023-12-20T05:32:22.115Z,9.309030
2023-12-20T05:33:22.603Z,9.309077
2023-12-20T05:34:21.980Z,9.309177
2023-12-20T05:35:21.996Z,9.309106
2023-12-20T05:36:21.770Z,9.309090
2023-12-20T05:37:21.808Z,9.309221
2023-12-20T05:38:22.019Z,9.309145
2023-12-20T05:39:21.681Z,9.309085
2023-12-20T05:40:21.648Z,9.309089
2023-12-20T05:41:21.534Z,9.309052
2023-12-20T05:42:21.483Z,9.309052
2023-12-20T05:43:21.633Z,9.309182
2023-12-20T05:44:21.553Z,9.309112
2023-12-20T05:45:21.963Z,9.309123
2023-12-20T05:46:21.697Z,9.309138
2023-12-20T05:47:21.550Z,9.309115
2023-12-20T05:48:21.605Z,9.309109
2023-12-20T05:49:21.708Z,9.309066
2023-12-20T05:50:21.601Z,9.309107
2023-12-20T05:51:21.684Z,9.309119
2023-12-20T05:52:21.651Z,9.309109
2023-12-20T05:53:21.653Z,9.309123
2023-12-20T05:54:21.641Z,9.309054
2023-12-20T05:55:21.701Z,9.309029
2023-12-20T05:56:22.042Z,9.309022
2023-12-20T05:57:21.685Z,9.308972
2023-12-20T05:58:21.575Z,9.309033
2023-12-20T05:59:22.101Z,9.309162
2023-12-20T06:00:21.572Z,9.309101
2023-12-20T06:01:21.546Z,9.309146
2023-12-20T06:02:21.472Z,9.309089
2023-12-20T06:03:22.034Z,9.309063
2023-12-20T06:04:23.989Z,9.309059
2023-12-20T06:05:22.471Z,9.309045
2023-12-20T16:28:13.939Z,9.308720
2023-12-20T16:40:16.138Z,9.309166
2023-12-20T16:41:15.975Z,9.309086
2023-12-20T16:42:15.748Z,9.309048
2023-12-20T16:43:15.674Z,9.309069
2023-12-20T16:44:15.673Z,9.309113
2023-12-20T16:45:15.760Z,9.309114
2023-12-20T16:46:15.950Z,9.309120
2023-12-20T16:47:15.714Z,9.309073
2023-12-20T16:48:16.033Z,9.309086
2023-12-20T16:49:15.748Z,9.309074
2023-12-20T16:50:16.009Z,9.309183
2023-12-20T16:51:15.700Z,9.309179
2023-12-20T16:52:15.563Z,9.309155
2023-12-20T16:53:15.526Z,9.309099
2023-12-20T16:54:15.457Z,9.309038
2023-12-20T16:55:15.639Z,9.309006
2023-12-20T16:56:15.695Z,9.309038
2023-12-20T16:57:15.425Z,9.309036
2023-12-20T16:58:16.304Z,9.309049
2023-12-20T16:59:15.516Z,9.309018
2023-12-20T17:22:15.338Z,9.309484
2023-12-20T17:23:15.069Z,9.309484
2023-12-20T17:34:50.799Z,9.308976
2023-12-20T17:35:52.310Z,9.308892
2023-12-20T17:36:50.331Z,9.308883
2023-12-20T17:37:50.692Z,9.308988
2023-12-20T17:38:50.390Z,9.308949
2023-12-20T17:39:50.395Z,9.308881
2023-12-20T17:40:50.231Z,9.308942
2023-12-20T17:41:50.280Z,9.308876
2023-12-20T17:42:50.377Z,9.308743
2023-12-20T17:43:50.330Z,9.309023
2023-12-20T17:44:50.664Z,9.309053
2023-12-20T17:45:50.404Z,9.308948
2023-12-20T17:46:50.276Z,9.309044
2023-12-20T17:47:50.720Z,9.309020
2023-12-20T17:48:50.480Z,9.309202
2023-12-20T17:49:51.335Z,9.309134
2023-12-20T17:50:50.312Z,9.309052
2023-12-20T17:51:50.323Z,9.308984
2023-12-20T17:52:50.240Z,9.309078
2023-12-20T17:53:50.466Z,9.309104
2023-12-20T17:55:14.297Z,9.308974
2023-12-20T17:55:50.128Z,9.309039
2023-12-20T17:56:50.377Z,9.309055
2023-12-20T17:58:50.169Z,9.309108
2023-12-20T18:00:35.274Z,9.309097
2023-12-20T18:00:50.230Z,9.309113
2023-12-20T18:01:50.284Z,9.309131
2023-12-20T18:02:50.903Z,9.309144
2023-12-20T18:03:51.103Z,9.309081
2023-12-20T18:04:50.550Z,9.309036
2023-12-20T18:05:50.378Z,9.309013
2023-12-20T18:06:50.353Z,9.309036
2023-12-20T18:07:50.674Z,9.308950
2023-12-20T18:08:50.178Z,9.309113
2023-12-20T18:09:50.236Z,9.309082
2023-12-20T18:10:50.327Z,9.309089
2023-12-20T18:11:50.446Z,9.309031
2023-12-20T18:12:50.243Z,9.308976
2023-12-20T18:20:57.765Z,9.308670
2023-12-20T18:21:57.352Z,9.308731
2023-12-20T18:22:57.417Z,9.308703
2023-12-20T18:24:02.617Z,9.308732
2023-12-20T18:24:59.215Z,9.308932
2023-12-20T18:25:57.306Z,9.308969
2023-12-20T22:24:04.111Z,9.308288
2023-12-20T22:25:03.998Z,9.308230
2023-12-20T22:26:04.540Z,9.308578
2023-12-20T22:35:33.298Z,9.309165
2023-12-20T22:36:32.577Z,9.309114
2023-12-20T22:37:32.542Z,9.309104
2023-12-20T22:39:13.375Z,9.309093
2023-12-20T22:39:32.349Z,9.309082
2023-12-20T23:57:45.380Z,9.308788
